This is the latest recevied weather packets stored in our database for station/object PY2FLB-13. If no packets are shown the sender has not sent any weather packets the latest 10 day(s).
| Time | Temp. | Humidity | Pressure | Rain* | Wind** | Luminosity | Snow |
|---|---|---|---|---|---|---|---|
| 1777695433 | 24.44° C | 52% | 1015 hPa | - | - | - | - |
| 1777695133 | 25° C | 52% | 1015 hPa | - | - | - | - |
| 1777694833 | 25° C | 51% | 1015.1 hPa | - | - | - | - |
| 1777694533 | 25° C | 52% | 1015.2 hPa | - | - | - | - |
| 1777694233 | 25° C | 51% | 1015.2 hPa | - | - | - | - |
| 1777693933 | 25.56° C | 50% | 1015.1 hPa | - | - | - | - |
| 1777693633 | 25.56° C | 50% | 1015.2 hPa | - | - | - | - |
| 1777693333 | 25.56° C | 50% | 1015.3 hPa | - | - | - | - |
| 1777693033 | 25.56° C | 51% | 1015.4 hPa | - | - | - | - |
| 1777692733 | 25° C | 51% | 1015.4 hPa | - | - | - | - |
| 1777692433 | 25° C | 52% | 1015.6 hPa | - | - | - | - |
| 1777692133 | 25.56° C | 51% | 1015.5 hPa | - | - | - | - |
| 1777691833 | 25.56° C | 50% | 1015.6 hPa | - | - | - | - |
| 1777691533 | 26.11° C | 50% | 1015.5 hPa | - | - | - | - |
| 1777691233 | 26.11° C | 49% | 1015.5 hPa | - | - | - | - |
| 1777690933 | 25.56° C | 51% | 1015.7 hPa | - | - | - | - |
| 1777690646 | 25.56° C | 50% | 1015.8 hPa | - | - | - | - |
| 1777690333 | 25.56° C | 50% | 1015.8 hPa | - | - | - | - |
| 1777690033 | 25.56° C | 50% | 1015.8 hPa | - | - | - | - |
| 1777689733 | 26.11° C | 49% | 1015.7 hPa | - | - | - | - |
| 1777689434 | 25.56° C | 50% | 1015.8 hPa | - | - | - | - |
| 1777689134 | 26.11° C | 49% | 1015.8 hPa | - | - | - | - |
| 1777688833 | 26.11° C | 49% | 1015.9 hPa | - | - | - | - |
| 1777688533 | 26.11° C | 49% | 1015.8 hPa | - | - | - | - |
| 1777688233 | 26.67° C | 49% | 1015.8 hPa | - | - | - | - |
* Rain since midnight (hover to see other rain measurements)
** Current wind speed in m/s (hover to see current wind gust speed)